sensor_id;sensor_type;location;lat;lon;timestamp;pressure;altitude;pressure_sealevel;temperature;humidity
49367;BME280;35245;52.026;8.540;2023-06-22T00:01:22;51167.31;;;-145.42;100.00
49367;BME280;35245;52.026;8.540;2023-06-22T00:03:49;51202.97;;;-145.42;100.00
49367;BME280;35245;52.026;8.540;2023-06-22T00:06:16;51214.88;;;-145.42;100.00
49367;BME280;35245;52.026;8.540;2023-06-22T00:08:43;51212.91;;;-145.42;100.00
49367;BME280;35245;52.026;8.540;2023-06-22T00:11:11;51199.03;;;-145.42;100.00
49367;BME280;35245;52.026;8.540;2023-06-22T00:13:39;51210.91;;;-145.42;100.00
49367;BME280;35245;52.026;8.540;2023-06-22T00:16:06;51208.94;;;-145.42;100.00
49367;BME280;35245;52.026;8.540;2023-06-22T00:18:35;51185.16;;;-145.42;100.00
49367;BME280;35245;52.026;8.540;2023-06-22T00:21:02;51193.06;;;-145.42;100.00
49367;BME280;35245;52.026;8.540;2023-06-22T00:23:30;51185.16;;;-145.42;100.00
49367;BME280;35245;52.026;8.540;2023-06-22T00:25:59;51181.19;;;-145.42;100.00
49367;BME280;35245;52.026;8.540;2023-06-22T00:28:27;51187.13;;;-145.42;100.00
49367;BME280;35245;52.026;8.540;2023-06-22T00:30:54;51204.97;;;-145.42;100.00
49367;BME280;35245;52.026;8.540;2023-06-22T00:33:21;51155.41;;;-145.42;100.00
49367;BME280;35245;52.026;8.540;2023-06-22T00:35:50;51151.44;;;-145.42;100.00
49367;BME280;35245;52.026;8.540;2023-06-22T00:38:18;51181.19;;;-145.42;100.00
49367;BME280;35245;52.026;8.540;2023-06-22T00:40:45;51179.19;;;-145.42;100.00
49367;BME280;35245;52.026;8.540;2023-06-22T00:43:12;51202.97;;;-145.42;100.00
49367;BME280;35245;52.026;8.540;2023-06-22T00:45:39;51204.97;;;-145.42;100.00
49367;BME280;35245;52.026;8.540;2023-06-22T00:48:07;51171.28;;;-145.42;100.00
49367;BME280;35245;52.026;8.540;2023-06-22T00:50:35;51189.09;;;-145.42;100.00
49367;BME280;35245;52.026;8.540;2023-06-22T00:53:07;51197.03;;;-145.42;100.00
49367;BME280;35245;52.026;8.540;2023-06-22T00:55:35;51173.25;;;-145.42;100.00
49367;BME280;35245;52.026;8.540;2023-06-22T00:58:05;51201.00;;;-145.42;100.00
49367;BME280;35245;52.026;8.540;2023-06-22T01:00:36;51195.06;;;-145.42;100.00
49367;BME280;35245;52.026;8.540;2023-06-22T01:03:04;51169.28;;;-145.42;100.00
49367;BME280;35245;52.026;8.540;2023-06-22T01:05:35;51187.13;;;-145.42;100.00
49367;BME280;35245;52.026;8.540;2023-06-22T01:08:16;51187.13;;;-145.42;100.00
49367;BME280;35245;52.026;8.540;2023-06-22T01:10:50;51165.31;;;-145.42;100.00
49367;BME280;35245;52.026;8.540;2023-06-22T01:13:27;51183.16;;;-145.42;100.00
49367;BME280;35245;52.026;8.540;2023-06-22T01:16:02;51167.31;;;-145.42;100.00
49367;BME280;35245;52.026;8.540;2023-06-22T01:18:31;51197.03;;;-145.42;100.00
49367;BME280;35245;52.026;8.540;2023-06-22T01:21:04;51173.25;;;-145.42;100.00
49367;BME280;35245;52.026;8.540;2023-06-22T01:23:44;51175.22;;;-145.42;100.00
49367;BME280;35245;52.026;8.540;2023-06-22T01:26:21;51173.25;;;-145.42;100.00
49367;BME280;35245;52.026;8.540;2023-06-22T01:28:52;51197.03;;;-145.42;100.00
49367;BME280;35245;52.026;8.540;2023-06-22T01:31:22;51195.06;;;-145.42;100.00
49367;BME280;35245;52.026;8.540;2023-06-22T01:33:53;51179.19;;;-145.42;100.00
49367;BME280;35245;52.026;8.540;2023-06-22T01:36:22;51185.16;;;-145.42;100.00
49367;BME280;35245;52.026;8.540;2023-06-22T01:38:52;51173.25;;;-145.42;100.00
49367;BME280;35245;52.026;8.540;2023-06-22T01:41:20;51177.22;;;-145.42;100.00
49367;BME280;35245;52.026;8.540;2023-06-22T01:43:50;51199.03;;;-145.42;100.00
49367;BME280;35245;52.026;8.540;2023-06-22T01:46:18;51185.16;;;-145.42;100.00
49367;BME280;35245;52.026;8.540;2023-06-22T01:48:46;51195.06;;;-145.42;100.00
49367;BME280;35245;52.026;8.540;2023-06-22T01:51:14;51202.97;;;-145.42;100.00
49367;BME280;35245;52.026;8.540;2023-06-22T01:53:41;51183.16;;;-145.42;100.00
49367;BME280;35245;52.026;8.540;2023-06-22T01:56:08;51201.00;;;-145.42;100.00
49367;BME280;35245;52.026;8.540;2023-06-22T01:58:41;51228.75;;;-145.42;100.00
49367;BME280;35245;52.026;8.540;2023-06-22T02:01:20;51165.31;;;-145.42;100.00
49367;BME280;35245;52.026;8.540;2023-06-22T02:03:52;51197.03;;;-145.42;100.00
49367;BME280;35245;52.026;8.540;2023-06-22T02:06:29;51183.16;;;-145.42;100.00
49367;BME280;35245;52.026;8.540;2023-06-22T02:09:05;51165.31;;;-145.42;100.00
49367;BME280;35245;52.026;8.540;2023-06-22T02:11:35;51167.31;;;-145.42;100.00
49367;BME280;35245;52.026;8.540;2023-06-22T02:14:04;51197.03;;;-145.42;100.00
49367;BME280;35245;52.026;8.540;2023-06-22T02:16:34;51199.03;;;-145.42;100.00
49367;BME280;35245;52.026;8.540;2023-06-22T02:19:03;51161.34;;;-145.42;100.00
49367;BME280;35245;52.026;8.540;2023-06-22T02:21:32;51216.84;;;-145.42;100.00
49367;BME280;35245;52.026;8.540;2023-06-22T02:23:59;51197.03;;;-145.42;100.00
49367;BME280;35245;52.026;8.540;2023-06-22T02:26:26;51165.31;;;-145.42;100.00
49367;BME280;35245;52.026;8.540;2023-06-22T02:28:54;51183.16;;;-145.42;100.00
49367;BME280;35245;52.026;8.540;2023-06-22T02:31:21;51199.03;;;-145.42;100.00
49367;BME280;35245;52.026;8.540;2023-06-22T02:33:49;51171.28;;;-145.42;100.00
49367;BME280;35245;52.026;8.540;2023-06-22T02:36:16;51167.31;;;-145.42;100.00
49367;BME280;35245;52.026;8.540;2023-06-22T02:38:47;51193.06;;;-145.42;100.00
49367;BME280;35245;52.026;8.540;2023-06-22T02:41:15;51173.25;;;-145.42;100.00
49367;BME280;35245;52.026;8.540;2023-06-22T02:43:44;51202.97;;;-145.42;100.00
49367;BME280;35245;52.026;8.540;2023-06-22T02:46:12;51193.06;;;-145.42;100.00
49367;BME280;35245;52.026;8.540;2023-06-22T02:48:39;51202.97;;;-145.42;100.00
49367;BME280;35245;52.026;8.540;2023-06-22T02:51:08;51208.94;;;-145.42;100.00
49367;BME280;35245;52.026;8.540;2023-06-22T02:53:35;51171.28;;;-145.42;100.00
49367;BME280;35245;52.026;8.540;2023-06-22T02:56:03;51187.13;;;-145.42;100.00
49367;BME280;35245;52.026;8.540;2023-06-22T02:58:31;51216.84;;;-145.42;100.00
49367;BME280;35245;52.026;8.540;2023-06-22T03:01:04;51199.03;;;-145.42;100.00
49367;BME280;35245;52.026;8.540;2023-06-22T03:03:31;51218.84;;;-145.42;100.00
49367;BME280;35245;52.026;8.540;2023-06-22T03:05:58;51208.94;;;-145.42;100.00
49367;BME280;35245;52.026;8.540;2023-06-22T03:08:28;51204.97;;;-145.42;100.00
49367;BME280;35245;52.026;8.540;2023-06-22T03:10:55;51195.06;;;-145.42;100.00
49367;BME280;35245;52.026;8.540;2023-06-22T03:13:23;51206.94;;;-145.42;100.00
49367;BME280;35245;52.026;8.540;2023-06-22T03:15:50;51216.84;;;-145.42;100.00
49367;BME280;35245;52.026;8.540;2023-06-22T03:18:18;51206.94;;;-145.42;100.00
49367;BME280;35245;52.026;8.540;2023-06-22T03:20:48;51195.06;;;-145.42;100.00
49367;BME280;35245;52.026;8.540;2023-06-22T03:23:15;51197.03;;;-145.42;100.00
49367;BME280;35245;52.026;8.540;2023-06-22T03:25:43;51179.19;;;-145.42;100.00
49367;BME280;35245;52.026;8.540;2023-06-22T03:28:11;51197.03;;;-145.42;100.00
49367;BME280;35245;52.026;8.540;2023-06-22T03:30:38;51206.94;;;-145.42;100.00
49367;BME280;35245;52.026;8.540;2023-06-22T03:33:05;51181.19;;;-145.42;100.00
49367;BME280;35245;52.026;8.540;2023-06-22T03:35:32;51226.78;;;-145.42;100.00
49367;BME280;35245;52.026;8.540;2023-06-22T03:37:59;51193.06;;;-145.42;100.00
49367;BME280;35245;52.026;8.540;2023-06-22T03:40:26;51179.19;;;-145.42;100.00
49367;BME280;35245;52.026;8.540;2023-06-22T03:42:55;51201.00;;;-145.42;100.00
49367;BME280;35245;52.026;8.540;2023-06-22T03:45:22;51177.22;;;-145.42;100.00
49367;BME280;35245;52.026;8.540;2023-06-22T03:47:49;51183.16;;;-145.42;100.00
49367;BME280;35245;52.026;8.540;2023-06-22T03:50:16;51232.72;;;-145.42;100.00
49367;BME280;35245;52.026;8.540;2023-06-22T03:52:46;51193.06;;;-145.42;100.00
49367;BME280;35245;52.026;8.540;2023-06-22T03:55:13;51208.94;;;-145.42;100.00
49367;BME280;35245;52.026;8.540;2023-06-22T03:57:40;51204.97;;;-145.42;100.00
49367;BME280;35245;52.026;8.540;2023-06-22T04:00:10;51199.03;;;-145.42;100.00
49367;BME280;35245;52.026;8.540;2023-06-22T04:02:37;51189.09;;;-145.42;100.00
49367;BME280;35245;52.026;8.540;2023-06-22T04:05:05;51212.91;;;-145.42;100.00
49367;BME280;35245;52.026;8.540;2023-06-22T04:07:33;51185.16;;;-145.42;100.00
49367;BME280;35245;52.026;8.540;2023-06-22T04:10:00;51220.81;;;-145.42;100.00
49367;BME280;35245;52.026;8.540;2023-06-22T04:12:27;51210.91;;;-145.42;100.00
49367;BME280;35245;52.026;8.540;2023-06-22T04:14:54;51206.94;;;-145.42;100.00
49367;BME280;35245;52.026;8.540;2023-06-22T04:17:22;51191.09;;;-145.42;100.00
49367;BME280;35245;52.026;8.540;2023-06-22T04:19:50;51226.78;;;-145.42;100.00
49367;BME280;35245;52.026;8.540;2023-06-22T04:22:17;51216.84;;;-145.42;100.00
49367;BME280;35245;52.026;8.540;2023-06-22T04:24:45;51202.97;;;-145.42;100.00
49367;BME280;35245;52.026;8.540;2023-06-22T04:27:12;51165.31;;;-145.42;100.00
49367;BME280;35245;52.026;8.540;2023-06-22T04:29:39;51193.06;;;-145.42;100.00
49367;BME280;35245;52.026;8.540;2023-06-22T04:32:14;51183.16;;;-145.42;100.00
49367;BME280;35245;52.026;8.540;2023-06-22T04:34:43;51195.06;;;-145.42;100.00
49367;BME280;35245;52.026;8.540;2023-06-22T04:37:10;51195.06;;;-145.42;100.00
49367;BME280;35245;52.026;8.540;2023-06-22T04:39:41;51197.03;;;-145.42;100.00
49367;BME280;35245;52.026;8.540;2023-06-22T04:42:08;51187.13;;;-145.42;100.00
49367;BME280;35245;52.026;8.540;2023-06-22T04:44:35;51177.22;;;-145.42;100.00
49367;BME280;35245;52.026;8.540;2023-06-22T04:47:03;51193.06;;;-145.42;100.00
49367;BME280;35245;52.026;8.540;2023-06-22T04:49:35;51226.78;;;-145.42;100.00
49367;BME280;35245;52.026;8.540;2023-06-22T04:52:06;51208.94;;;-145.42;100.00
49367;BME280;35245;52.026;8.540;2023-06-22T04:54:35;51199.03;;;-145.42;100.00
49367;BME280;35245;52.026;8.540;2023-06-22T04:57:05;51220.81;;;-145.42;100.00
49367;BME280;35245;52.026;8.540;2023-06-22T04:59:36;51208.94;;;-145.42;100.00
49367;BME280;35245;52.026;8.540;2023-06-22T05:02:05;51173.25;;;-145.42;100.00
49367;BME280;35245;52.026;8.540;2023-06-22T05:04:33;51210.91;;;-145.42;100.00
49367;BME280;35245;52.026;8.540;2023-06-22T05:07:03;51208.94;;;-145.42;100.00
49367;BME280;35245;52.026;8.540;2023-06-22T05:09:31;51210.91;;;-145.42;100.00
49367;BME280;35245;52.026;8.540;2023-06-22T05:11:59;51220.81;;;-145.42;100.00
49367;BME280;35245;52.026;8.540;2023-06-22T05:14:28;51216.84;;;-145.42;100.00
49367;BME280;35245;52.026;8.540;2023-06-22T05:16:55;51202.97;;;-145.42;100.00
49367;BME280;35245;52.026;8.540;2023-06-22T05:19:25;51212.91;;;-145.42;100.00
49367;BME280;35245;52.026;8.540;2023-06-22T05:21:57;51224.78;;;-145.42;100.00
49367;BME280;35245;52.026;8.540;2023-06-22T05:24:25;51204.97;;;-145.42;100.00
49367;BME280;35245;52.026;8.540;2023-06-22T05:26:52;51199.03;;;-145.42;100.00
49367;BME280;35245;52.026;8.540;2023-06-22T05:29:20;51204.97;;;-145.42;100.00
49367;BME280;35245;52.026;8.540;2023-06-22T05:31:47;51202.97;;;-145.42;100.00
49367;BME280;35245;52.026;8.540;2023-06-22T05:34:15;51214.88;;;-145.42;100.00
49367;BME280;35245;52.026;8.540;2023-06-22T05:36:42;51165.31;;;-145.42;100.00
49367;BME280;35245;52.026;8.540;2023-06-22T05:39:13;51201.00;;;-145.42;100.00
49367;BME280;35245;52.026;8.540;2023-06-22T05:41:43;51204.97;;;-145.42;100.00
49367;BME280;35245;52.026;8.540;2023-06-22T05:44:10;51197.03;;;-145.42;100.00
49367;BME280;35245;52.026;8.540;2023-06-22T05:46:39;51218.84;;;-145.42;100.00
49367;BME280;35245;52.026;8.540;2023-06-22T05:49:06;51214.88;;;-145.42;100.00
49367;BME280;35245;52.026;8.540;2023-06-22T05:51:33;51218.84;;;-145.42;100.00
49367;BME280;35245;52.026;8.540;2023-06-22T05:54:00;51222.81;;;-145.42;100.00
49367;BME280;35245;52.026;8.540;2023-06-22T05:56:27;51218.84;;;-145.42;100.00
49367;BME280;35245;52.026;8.540;2023-06-22T05:58:56;51256.50;;;-145.42;100.00
49367;BME280;35245;52.026;8.540;2023-06-22T06:01:23;51218.84;;;-145.42;100.00
49367;BME280;35245;52.026;8.540;2023-06-22T06:03:51;51246.59;;;-145.42;100.00
49367;BME280;35245;52.026;8.540;2023-06-22T06:06:19;51254.53;;;-145.42;100.00
49367;BME280;35245;52.026;8.540;2023-06-22T06:08:48;51240.66;;;-145.42;100.00
49367;BME280;35245;52.026;8.540;2023-06-22T06:11:15;51250.56;;;-145.42;100.00
49367;BME280;35245;52.026;8.540;2023-06-22T06:13:42;51242.63;;;-145.42;100.00
49367;BME280;35245;52.026;8.540;2023-06-22T06:16:10;51246.59;;;-145.42;100.00
49367;BME280;35245;52.026;8.540;2023-06-22T06:18:38;51244.63;;;-145.42;100.00
49367;BME280;35245;52.026;8.540;2023-06-22T06:21:05;51250.56;;;-145.42;100.00
49367;BME280;35245;52.026;8.540;2023-06-22T06:23:32;51260.47;;;-145.42;100.00
49367;BME280;35245;52.026;8.540;2023-06-22T06:25:59;51240.66;;;-145.42;100.00
49367;BME280;35245;52.026;8.540;2023-06-22T06:28:27;51272.38;;;-145.42;100.00
49367;BME280;35245;52.026;8.540;2023-06-22T06:30:54;51218.84;;;-145.42;100.00
49367;BME280;35245;52.026;8.540;2023-06-22T06:33:22;51252.53;;;-145.42;100.00
49367;BME280;35245;52.026;8.540;2023-06-22T06:35:50;51260.47;;;-145.42;100.00
49367;BME280;35245;52.026;8.540;2023-06-22T06:38:17;51300.13;;;-145.42;100.00
49367;BME280;35245;52.026;8.540;2023-06-22T06:40:44;51306.06;;;-145.42;100.00
49367;BME280;35245;52.026;8.540;2023-06-22T06:43:11;51268.41;;;-145.42;100.00
49367;BME280;35245;52.026;8.540;2023-06-22T06:45:38;51262.44;;;-145.42;100.00
49367;BME280;35245;52.026;8.540;2023-06-22T06:48:05;51296.16;;;-145.42;100.00
49367;BME280;35245;52.026;8.540;2023-06-22T06:50:34;51314.00;;;-145.42;100.00
49367;BME280;35245;52.026;8.540;2023-06-22T06:53:01;51321.91;;;-145.42;100.00
49367;BME280;35245;52.026;8.540;2023-06-22T06:55:28;51308.03;;;-145.42;100.00
49367;BME280;35245;52.026;8.540;2023-06-22T06:57:58;51308.03;;;-145.42;100.00
49367;BME280;35245;52.026;8.540;2023-06-22T07:00:26;51284.25;;;-145.42;100.00
49367;BME280;35245;52.026;8.540;2023-06-22T07:02:53;51280.28;;;-145.42;100.00
49367;BME280;35245;52.026;8.540;2023-06-22T07:05:20;51306.06;;;-145.42;100.00
49367;BME280;35245;52.026;8.540;2023-06-22T07:07:49;51278.31;;;-145.42;100.00
49367;BME280;35245;52.026;8.540;2023-06-22T07:10:16;51292.19;;;-145.42;100.00
49367;BME280;35245;52.026;8.540;2023-06-22T07:12:43;51312.00;;;-145.42;100.00
49367;BME280;35245;52.026;8.540;2023-06-22T07:15:11;51272.38;;;-145.42;100.00
49367;BME280;35245;52.026;8.540;2023-06-22T07:17:39;51278.31;;;-145.42;100.00
49367;BME280;35245;52.026;8.540;2023-06-22T07:20:08;51280.28;;;-145.42;100.00
49367;BME280;35245;52.026;8.540;2023-06-22T07:22:37;51278.31;;;-145.42;100.00
49367;BME280;35245;52.026;8.540;2023-06-22T07:25:07;51292.19;;;-145.42;100.00
49367;BME280;35245;52.026;8.540;2023-06-22T07:27:37;51298.13;;;-145.42;100.00
49367;BME280;35245;52.026;8.540;2023-06-22T07:30:07;51264.44;;;-145.42;100.00
49367;BME280;35245;52.026;8.540;2023-06-22T07:32:34;51276.31;;;-145.42;100.00
49367;BME280;35245;52.026;8.540;2023-06-22T07:35:01;51294.16;;;-145.42;100.00
49367;BME280;35245;52.026;8.540;2023-06-22T07:37:29;51294.16;;;-145.42;100.00
49367;BME280;35245;52.026;8.540;2023-06-22T07:39:59;51288.22;;;-145.42;100.00
49367;BME280;35245;52.026;8.540;2023-06-22T07:42:27;51284.25;;;-145.42;100.00
49367;BME280;35245;52.026;8.540;2023-06-22T07:44:58;51296.16;;;-145.42;100.00
49367;BME280;35245;52.026;8.540;2023-06-22T07:47:25;51310.03;;;-145.42;100.00
49367;BME280;35245;52.026;8.540;2023-06-22T07:49:54;51329.84;;;-145.42;100.00
49367;BME280;35245;52.026;8.540;2023-06-22T07:52:24;51333.81;;;-145.42;100.00
49367;BME280;35245;52.026;8.540;2023-06-22T07:54:51;51290.22;;;-145.42;100.00
49367;BME280;35245;52.026;8.540;2023-06-22T07:57:19;51304.09;;;-145.42;100.00
49367;BME280;35245;52.026;8.540;2023-06-22T07:59:47;51335.81;;;-145.42;100.00
49367;BME280;35245;52.026;8.540;2023-06-22T08:02:15;51310.03;;;-145.42;100.00
49367;BME280;35245;52.026;8.540;2023-06-22T08:04:42;51302.09;;;-145.42;100.00
49367;BME280;35245;52.026;8.540;2023-06-22T08:07:09;51298.13;;;-145.42;100.00
49367;BME280;35245;52.026;8.540;2023-06-22T08:09:36;51314.00;;;-145.42;100.00
49367;BME280;35245;52.026;8.540;2023-06-22T08:12:05;51310.03;;;-145.42;100.00
49367;BME280;35245;52.026;8.540;2023-06-22T08:14:32;51280.28;;;-145.42;100.00
49367;BME280;35245;52.026;8.540;2023-06-22T08:17:04;51314.00;;;-145.42;100.00
49367;BME280;35245;52.026;8.540;2023-06-22T08:19:31;51319.94;;;-145.42;100.00
49367;BME280;35245;52.026;8.540;2023-06-22T08:21:58;51294.16;;;-145.42;100.00
49367;BME280;35245;52.026;8.540;2023-06-22T08:24:25;51327.88;;;-145.42;100.00
49367;BME280;35245;52.026;8.540;2023-06-22T08:26:56;51310.03;;;-145.42;100.00
49367;BME280;35245;52.026;8.540;2023-06-22T08:29:23;51339.75;;;-145.42;100.00
49367;BME280;35245;52.026;8.540;2023-06-22T08:31:50;51329.84;;;-145.42;100.00
49367;BME280;35245;52.026;8.540;2023-06-22T08:34:19;51327.88;;;-145.42;100.00
49367;BME280;35245;52.026;8.540;2023-06-22T08:36:47;51300.13;;;-145.42;100.00
49367;BME280;35245;52.026;8.540;2023-06-22T08:39:17;51335.81;;;-145.42;100.00
49367;BME280;35245;52.026;8.540;2023-06-22T08:41:44;51355.63;;;-145.42;100.00
49367;BME280;35245;52.026;8.540;2023-06-22T08:44:11;51317.97;;;-145.42;100.00
49367;BME280;35245;52.026;8.540;2023-06-22T08:46:39;51339.75;;;-145.42;100.00
49367;BME280;35245;52.026;8.540;2023-06-22T08:49:06;51377.44;;;-145.42;100.00
49367;BME280;35245;52.026;8.540;2023-06-22T08:51:35;51377.44;;;-145.42;100.00
49367;BME280;35245;52.026;8.540;2023-06-22T08:54:02;51397.25;;;-145.42;100.00
49367;BME280;35245;52.026;8.540;2023-06-22T08:56:29;51385.34;;;-145.42;100.00
49367;BME280;35245;52.026;8.540;2023-06-22T08:58:56;51367.53;;;-145.42;100.00
49367;BME280;35245;52.026;8.540;2023-06-22T09:01:24;51329.84;;;-145.42;100.00
49367;BME280;35245;52.026;8.540;2023-06-22T09:03:51;51347.69;;;-145.42;100.00
49367;BME280;35245;52.026;8.540;2023-06-22T09:06:23;51347.69;;;-145.42;100.00
49367;BME280;35245;52.026;8.540;2023-06-22T09:08:51;51357.59;;;-145.42;100.00
49367;BME280;35245;52.026;8.540;2023-06-22T09:11:18;51347.69;;;-145.42;100.00
49367;BME280;35245;52.026;8.540;2023-06-22T09:13:46;51357.59;;;-145.42;100.00
49367;BME280;35245;52.026;8.540;2023-06-22T09:16:13;51345.72;;;-145.42;100.00
49367;BME280;35245;52.026;8.540;2023-06-22T09:18:40;51393.28;;;-145.42;100.00
49367;BME280;35245;52.026;8.540;2023-06-22T09:21:08;51399.25;;;-145.42;100.00
49367;BME280;35245;52.026;8.540;2023-06-22T09:23:35;51395.28;;;-145.42;100.00
49367;BME280;35245;52.026;8.540;2023-06-22T09:26:03;51391.31;;;-145.42;100.00
49367;BME280;35245;52.026;8.540;2023-06-22T09:28:30;51407.16;;;-145.42;100.00
49367;BME280;35245;52.026;8.540;2023-06-22T09:30:59;51403.19;;;-145.42;100.00
49367;BME280;35245;52.026;8.540;2023-06-22T09:33:26;51407.16;;;-145.42;100.00
49367;BME280;35245;52.026;8.540;2023-06-22T09:35:53;51415.09;;;-145.42;100.00
49367;BME280;35245;52.026;8.540;2023-06-22T09:38:22;51399.25;;;-145.42;100.00
49367;BME280;35245;52.026;8.540;2023-06-22T09:40:49;51450.78;;;-145.42;100.00
49367;BME280;35245;52.026;8.540;2023-06-22T09:43:17;51411.13;;;-145.42;100.00
49367;BME280;35245;52.026;8.540;2023-06-22T09:45:44;51403.19;;;-145.42;100.00
49367;BME280;35245;52.026;8.540;2023-06-22T09:48:11;51379.41;;;-145.42;100.00
49367;BME280;35245;52.026;8.540;2023-06-22T09:50:39;51413.13;;;-145.42;100.00
49367;BME280;35245;52.026;8.540;2023-06-22T09:53:06;51405.19;;;-145.42;100.00
49367;BME280;35245;52.026;8.540;2023-06-22T09:55:33;51375.44;;;-145.42;100.00
49367;BME280;35245;52.026;8.540;2023-06-22T09:58:00;51373.47;;;-145.42;100.00
49367;BME280;35245;52.026;8.540;2023-06-22T10:00:28;51345.72;;;-145.42;100.00
49367;BME280;35245;52.026;8.540;2023-06-22T10:02:55;51361.56;;;-145.42;100.00
49367;BME280;35245;52.026;8.540;2023-06-22T10:05:23;51359.59;;;-145.42;100.00
49367;BME280;35245;52.026;8.540;2023-06-22T10:07:50;51377.44;;;-145.42;100.00
49367;BME280;35245;52.026;8.540;2023-06-22T10:10:18;51353.63;;;-145.42;100.00
49367;BME280;35245;52.026;8.540;2023-06-22T10:12:47;51381.41;;;-145.42;100.00
49367;BME280;35245;52.026;8.540;2023-06-22T10:15:15;51369.50;;;-145.42;100.00
49367;BME280;35245;52.026;8.540;2023-06-22T10:17:43;51337.78;;;-145.42;100.00
49367;BME280;35245;52.026;8.540;2023-06-22T10:20:11;51347.69;;;-145.42;100.00
49367;BME280;35245;52.026;8.540;2023-06-22T10:22:39;51369.50;;;-145.42;100.00
49367;BME280;35245;52.026;8.540;2023-06-22T10:25:07;51371.47;;;-145.42;100.00
49367;BME280;35245;52.026;8.540;2023-06-22T10:27:35;51399.25;;;-145.42;100.00
49367;BME280;35245;52.026;8.540;2023-06-22T10:30:03;51393.28;;;-145.42;100.00
49367;BME280;35245;52.026;8.540;2023-06-22T10:32:31;51419.06;;;-145.42;100.00
49367;BME280;35245;52.026;8.540;2023-06-22T10:35:00;51436.91;;;-145.42;100.00
49367;BME280;35245;52.026;8.540;2023-06-22T10:37:27;51419.06;;;-145.42;100.00
49367;BME280;35245;52.026;8.540;2023-06-22T10:39:55;51395.28;;;-145.42;100.00
49367;BME280;35245;52.026;8.540;2023-06-22T10:42:22;51436.91;;;-145.42;100.00
49367;BME280;35245;52.026;8.540;2023-06-22T10:44:49;51448.78;;;-145.42;100.00
49367;BME280;35245;52.026;8.540;2023-06-22T10:47:16;51432.94;;;-145.42;100.00
49367;BME280;35245;52.026;8.540;2023-06-22T10:49:44;51446.81;;;-145.42;100.00
49367;BME280;35245;52.026;8.540;2023-06-22T10:52:12;51470.59;;;-145.42;100.00
49367;BME280;35245;52.026;8.540;2023-06-22T10:54:40;51496.38;;;-145.42;100.00
49367;BME280;35245;52.026;8.540;2023-06-22T10:57:07;51444.84;;;-145.42;100.00
49367;BME280;35245;52.026;8.540;2023-06-22T10:59:35;51442.84;;;-145.42;100.00
49367;BME280;35245;52.026;8.540;2023-06-22T11:02:02;51432.94;;;-145.42;100.00
49367;BME280;35245;52.026;8.540;2023-06-22T11:04:29;51448.78;;;-145.42;100.00
49367;BME280;35245;52.026;8.540;2023-06-22T11:06:56;51425.00;;;-145.42;100.00
49367;BME280;35245;52.026;8.540;2023-06-22T11:09:24;51452.75;;;-145.42;100.00
49367;BME280;35245;52.026;8.540;2023-06-22T11:11:52;51423.03;;;-145.42;100.00
49367;BME280;35245;52.026;8.540;2023-06-22T11:14:20;51464.66;;;-145.42;100.00
49367;BME280;35245;52.026;8.540;2023-06-22T11:16:47;51504.31;;;-145.42;100.00
49367;BME280;35245;52.026;8.540;2023-06-22T11:19:15;51476.56;;;-145.42;100.00
49367;BME280;35245;52.026;8.540;2023-06-22T11:21:42;51516.19;;;-145.42;100.00
49367;BME280;35245;52.026;8.540;2023-06-22T11:24:09;51510.25;;;-145.42;100.00
49367;BME280;35245;52.026;8.540;2023-06-22T11:26:37;51510.25;;;-145.42;100.00
49367;BME280;35245;52.026;8.540;2023-06-22T11:29:04;51494.38;;;-145.42;100.00
49367;BME280;35245;52.026;8.540;2023-06-22T11:31:32;51538.00;;;-145.42;100.00
49367;BME280;35245;52.026;8.540;2023-06-22T11:33:59;51514.22;;;-145.42;100.00
49367;BME280;35245;52.026;8.540;2023-06-22T11:36:27;51541.97;;;-145.42;100.00
49367;BME280;35245;52.026;8.540;2023-06-22T11:38:55;51528.09;;;-145.42;100.00
49367;BME280;35245;52.026;8.540;2023-06-22T11:41:22;51470.59;;;-145.42;100.00
49367;BME280;35245;52.026;8.540;2023-06-22T11:43:50;51534.03;;;-145.42;100.00
49367;BME280;35245;52.026;8.540;2023-06-22T11:46:17;51597.47;;;-145.42;100.00
49367;BME280;35245;52.026;8.540;2023-06-22T11:48:44;51557.84;;;-145.42;100.00
49367;BME280;35245;52.026;8.540;2023-06-22T11:51:12;51565.75;;;-145.42;100.00
49367;BME280;35245;52.026;8.540;2023-06-22T11:53:39;51569.72;;;-145.42;100.00
49367;BME280;35245;52.026;8.540;2023-06-22T11:56:06;51597.47;;;-145.42;100.00
49367;BME280;35245;52.026;8.540;2023-06-22T11:58:33;51587.56;;;-145.42;100.00
49367;BME280;35245;52.026;8.540;2023-06-22T12:01:02;51551.88;;;-145.42;100.00
49367;BME280;35245;52.026;8.540;2023-06-22T12:03:29;51581.63;;;-145.42;100.00
49367;BME280;35245;52.026;8.540;2023-06-22T12:05:56;51538.00;;;-145.42;100.00
49367;BME280;35245;52.026;8.540;2023-06-22T12:08:23;51524.13;;;-145.42;100.00
49367;BME280;35245;52.026;8.540;2023-06-22T12:10:51;51601.44;;;-145.42;100.00
49367;BME280;35245;52.026;8.540;2023-06-22T12:13:19;51543.94;;;-145.42;100.00
49367;BME280;35245;52.026;8.540;2023-06-22T12:15:46;51530.06;;;-145.42;100.00
49367;BME280;35245;52.026;8.540;2023-06-22T12:18:15;51536.03;;;-145.42;100.00
49367;BME280;35245;52.026;8.540;2023-06-22T12:20:42;51534.03;;;-145.42;100.00
49367;BME280;35245;52.026;8.540;2023-06-22T12:23:10;51520.16;;;-145.42;100.00
49367;BME280;35245;52.026;8.540;2023-06-22T12:25:37;51516.19;;;-145.42;100.00
49367;BME280;35245;52.026;8.540;2023-06-22T12:28:04;51528.09;;;-145.42;100.00
49367;BME280;35245;52.026;8.540;2023-06-22T12:30:33;51474.56;;;-145.42;100.00
49367;BME280;35245;52.026;8.540;2023-06-22T12:33:00;51488.44;;;-145.42;100.00
49367;BME280;35245;52.026;8.540;2023-06-22T12:35:28;51462.69;;;-145.42;100.00